Time;durP1;ratioP1;P1;durP2;ratioP2;P2;SDS_P1;SDS_P2;PMS_P1;PMS_P2;Temp;Humidity;BMP_temperature;BMP_pressure;BME280_temperature;BME280_humidity;BME280_pressure;Samples;Min_cycle;Max_cycle;Signal;HPM_P1;HPM_P2
2022/11/05 00:10:58;;;;;;;14.02;7.07;;;5.90;99.90;;;;;;5040180;28;20442;-73
2022/11/05 00:19:06;;;;;;;15.02;7.00;;;5.80;99.90;;;;;;5003793;28;20096;-73
2022/11/05 00:27:01;;;;;;;16.38;7.00;;;5.70;99.90;;;;;;5057138;28;20048;-73
2022/11/05 00:29:27;;;;;;;10.50;5.70;;;5.70;99.90;;;;;;5056603;28;20502;-74
2022/11/05 00:31:52;;;;;;;15.90;6.53;;;5.90;99.90;;;;;;5057109;28;20119;-74
2022/11/05 00:34:18;;;;;;;13.70;6.32;;;5.60;99.90;;;;;;5056521;28;20349;-73
2022/11/05 00:36:43;;;;;;;20.40;7.28;;;5.50;99.90;;;;;;5056825;28;20124;-74
2022/11/05 00:39:09;;;;;;;16.42;6.57;;;5.50;99.90;;;;;;5057175;28;20037;-74
2022/11/05 00:41:35;;;;;;;17.13;6.75;;;5.50;99.90;;;;;;5056595;28;20055;-74
2022/11/05 00:46:44;;;;;;;11.73;6.25;;;5.30;99.90;;;;;;5056674;28;20083;-74
2022/11/05 00:54:38;;;;;;;15.50;6.38;;;5.20;99.90;;;;;;5036687;28;20057;-73
2022/11/05 00:57:04;;;;;;;16.33;6.40;;;5.20;99.90;;;;;;5019375;28;20045;-72
2022/11/05 00:59:29;;;;;;;21.98;6.60;;;5.20;99.90;;;;;;5037002;28;20051;-74
2022/11/05 01:01:55;;;;;;;14.05;6.15;;;5.20;99.90;;;;;;5036488;28;20064;-73
2022/11/05 01:04:20;;;;;;;14.18;6.10;;;5.20;99.90;;;;;;5055569;28;20380;-74
2022/11/05 01:06:46;;;;;;;13.95;5.53;;;5.20;99.90;;;;;;5056534;28;20037;-74
2022/11/05 01:09:11;;;;;;;12.05;5.72;;;5.20;99.90;;;;;;5039116;28;20499;-74
2022/11/05 01:11:39;;;;;;;14.60;5.40;;;5.20;99.90;;;;;;5056672;28;20127;-73
2022/11/05 01:14:13;;;;;;;11.63;5.80;;;5.10;99.90;;;;;;5055928;28;20041;-73
2022/11/05 01:16:39;;;;;;;16.90;5.63;;;5.10;99.90;;;;;;5038662;28;20056;-73
2022/11/05 01:19:07;;;;;;;12.82;5.35;;;5.10;99.90;;;;;;5038242;28;20119;-74
2022/11/05 01:21:32;;;;;;;12.55;5.30;;;5.10;99.90;;;;;;5055212;28;20053;-73
2022/11/05 01:23:58;;;;;;;15.82;4.95;;;5.10;99.90;;;;;;5055555;28;20087;-73
2022/11/05 01:26:25;;;;;;;12.02;5.28;;;5.10;99.90;;;;;;5056261;28;20041;-72
2022/11/05 01:28:51;;;;;;;14.57;4.75;;;5.00;99.90;;;;;;5038483;28;20061;-73
2022/11/05 01:31:17;;;;;;;13.90;5.65;;;5.00;99.90;;;;;;5056100;28;20036;-73
2022/11/05 01:33:43;;;;;;;13.65;5.35;;;5.00;99.90;;;;;;5020264;28;20052;-75
2022/11/05 01:36:09;;;;;;;20.60;5.30;;;5.00;99.90;;;;;;5056028;28;20041;-74
2022/11/05 01:38:35;;;;;;;13.90;5.25;;;5.00;99.90;;;;;;5055556;28;20122;-75
2022/11/05 01:41:00;;;;;;;15.65;5.70;;;5.00;99.90;;;;;;5055632;28;20045;-73
2022/11/05 01:43:43;;;;;;;19.70;5.47;;;5.00;99.90;;;;;;5038264;28;20118;-73
2022/11/05 01:46:08;;;;;;;13.10;5.18;;;5.00;99.90;;;;;;5055666;28;20052;-72
2022/11/05 01:48:34;;;;;;;13.68;4.38;;;5.00;99.90;;;;;;5055854;28;20060;-74
2022/11/05 01:51:05;;;;;;;9.60;4.82;;;5.00;99.90;;;;;;5055385;28;20463;-72
2022/11/05 01:53:54;;;;;;;13.00;4.80;;;5.50;99.90;;;;;;5054802;28;20102;-73
2022/11/05 01:56:33;;;;;;;16.02;5.32;;;4.90;99.90;;;;;;5055289;28;20044;-74
2022/11/05 01:59:10;;;;;;;10.63;5.03;;;4.90;99.90;;;;;;5055600;28;20049;-73
2022/11/05 02:01:36;;;;;;;11.00;4.50;;;4.80;99.90;;;;;;5054960;28;20072;-73
2022/11/05 02:04:05;;;;;;;13.13;5.07;;;4.80;99.90;;;;;;5055010;28;20037;-72
2022/11/05 02:06:35;;;;;;;13.13;4.82;;;4.80;99.90;;;;;;5055214;28;20102;-74
2022/11/05 02:09:28;;;;;;;13.30;4.40;;;4.80;99.90;;;;;;5055290;28;20049;-73
2022/11/05 02:11:53;;;;;;;12.23;4.45;;;4.80;99.90;;;;;;5055024;28;20045;-74
2022/11/05 02:14:19;;;;;;;12.75;4.57;;;4.80;99.90;;;;;;5019880;28;20132;-73
2022/11/05 02:17:12;;;;;;;11.73;4.68;;;4.70;99.90;;;;;;5038000;28;20099;-73
2022/11/05 02:20:17;;;;;;;13.90;4.35;;;4.70;99.90;;;;;;5036997;28;20072;-73
2022/11/05 02:23:16;;;;;;;12.48;4.28;;;4.70;99.90;;;;;;5054740;28;20373;-74
2022/11/05 02:26:02;;;;;;;13.13;4.75;;;4.60;99.90;;;;;;5055074;28;20068;-74
2022/11/05 02:28:34;;;;;;;18.20;6.30;;;4.60;99.90;;;;;;5055416;28;20049;-74
2022/11/05 02:31:21;;;;;;;13.43;6.70;;;4.60;99.90;;;;;;5054990;28;20053;-73
2022/11/05 02:34:00;;;;;;;14.82;5.68;;;4.50;99.90;;;;;;5020202;28;20064;-74
2022/11/05 02:36:36;;;;;;;18.15;7.55;;;4.50;99.90;;;;;;5054949;28;20040;-73
2022/11/05 02:39:46;;;;;;;13.32;6.32;;;4.50;99.90;;;;;;5055215;28;20045;-74
2022/11/05 02:42:18;;;;;;;12.35;5.90;;;4.50;99.90;;;;;;5050959;28;20061;-72
2022/11/05 02:44:55;;;;;;;11.18;6.78;;;4.50;99.90;;;;;;5054410;28;20056;-73
2022/11/05 02:47:43;;;;;;;16.85;7.53;;;4.50;99.90;;;;;;5053819;28;20429;-73
2022/11/05 02:50:14;;;;;;;11.60;7.20;;;4.50;99.90;;;;;;5054870;28;20044;-72
2022/11/05 02:52:52;;;;;;;20.40;7.38;;;4.50;99.90;;;;;;5054615;28;20059;-73
2022/11/05 02:55:40;;;;;;;17.42;8.77;;;4.50;99.90;;;;;;5037456;28;20373;-72
2022/11/05 02:58:06;;;;;;;20.55;9.50;;;4.60;99.90;;;;;;5054650;28;20127;-73
2022/11/05 03:00:51;;;;;;;21.27;9.27;;;4.60;99.90;;;;;;5054211;28;20057;-74
2022/11/05 03:03:25;;;;;;;20.70;8.43;;;4.60;99.90;;;;;;5036913;28;20457;-72
2022/11/05 03:06:18;;;;;;;17.23;8.82;;;4.60;99.90;;;;;;5054966;28;20449;-73
2022/11/05 03:09:23;;;;;;;19.42;8.70;;;4.60;99.90;;;;;;5054379;28;20456;-73
2022/11/05 03:12:13;;;;;;;16.90;8.38;;;4.60;99.90;;;;;;5054878;28;20041;-73
2022/11/05 03:15:03;;;;;;;22.33;9.20;;;4.60;99.90;;;;;;5053683;28;21807;-72
2022/11/05 03:17:37;;;;;;;16.48;7.90;;;4.60;99.90;;;;;;5054323;28;20053;-73
2022/11/05 03:20:15;;;;;;;18.83;7.72;;;4.60;99.90;;;;;;5054726;28;20382;-74
2022/11/05 03:22:46;;;;;;;15.45;7.32;;;4.60;99.90;;;;;;5037353;28;20053;-74
2022/11/05 03:25:19;;;;;;;14.77;7.32;;;4.60;99.90;;;;;;5054421;28;20059;-73
2022/11/05 03:27:47;;;;;;;15.63;7.05;;;4.60;99.90;;;;;;5054518;28;20052;-73
2022/11/05 03:30:14;;;;;;;15.98;7.63;;;4.60;99.90;;;;;;5055157;28;20071;-74
2022/11/05 03:32:49;;;;;;;12.00;6.70;;;4.60;99.90;;;;;;5036390;28;20103;-74
2022/11/05 03:35:29;;;;;;;12.05;6.32;;;4.60;99.90;;;;;;5054616;28;20041;-74
2022/11/05 03:38:00;;;;;;;14.30;6.28;;;4.60;99.90;;;;;;5054104;28;20051;-73
2022/11/05 03:40:31;;;;;;;16.90;7.25;;;4.60;99.90;;;;;;5054917;28;20085;-74
2022/11/05 03:42:58;;;;;;;13.15;6.75;;;4.60;99.90;;;;;;5054166;28;20037;-72
2022/11/05 03:45:37;;;;;;;13.57;7.13;;;4.60;99.90;;;;;;5058121;28;20068;-72
2022/11/05 03:48:06;;;;;;;16.88;6.53;;;4.60;99.90;;;;;;5058101;28;20041;-73
2022/11/05 03:50:44;;;;;;;10.85;5.57;;;4.60;99.90;;;;;;5057872;28;20037;-75
2022/11/05 03:53:21;;;;;;;14.82;6.30;;;5.10;99.90;;;;;;5057570;28;20139;-74
2022/11/05 03:56:17;;;;;;;12.15;5.60;;;4.50;99.90;;;;;;5057678;28;20423;-72
2022/11/05 03:58:44;;;;;;;15.68;6.60;;;4.60;99.90;;;;;;5040364;28;20045;-74
2022/11/05 04:01:11;;;;;;;15.38;6.15;;;4.60;99.90;;;;;;5057516;28;20415;-73
2022/11/05 04:03:37;;;;;;;18.10;6.53;;;4.60;99.90;;;;;;5057623;28;20044;-73
2022/11/05 04:14:17;;;;;;;14.60;5.50;;;4.60;99.90;;;;;;5057023;28;20136;-73
2022/11/05 04:24:56;;;;;;;20.27;7.13;;;4.60;99.90;;;;;;5057002;28;20045;-73
2022/11/05 04:27:21;;;;;;;15.18;6.47;;;4.60;99.90;;;;;;5056771;28;20052;-75
2022/11/05 04:32:31;;;;;;;14.10;7.05;;;4.60;99.90;;;;;;5057019;28;20421;-73
2022/11/05 04:34:57;;;;;;;15.27;7.22;;;4.60;99.90;;;;;;5056855;28;20099;-74
2022/11/05 04:37:22;;;;;;;13.98;6.47;;;4.60;99.90;;;;;;5057033;28;20037;-72
2022/11/05 04:39:48;;;;;;;18.50;7.90;;;4.60;99.90;;;;;;5057287;28;20049;-74
2022/11/05 04:42:13;;;;;;;10.52;6.95;;;4.60;99.90;;;;;;5056650;28;20472;-73
2022/11/05 04:44:39;;;;;;;17.88;8.75;;;4.60;99.90;;;;;;5056254;28;20041;-73
2022/11/05 04:47:04;;;;;;;14.52;7.45;;;4.80;99.90;;;;;;5056725;28;20049;-73
2022/11/05 04:49:30;;;;;;;15.55;7.25;;;4.60;99.90;;;;;;5057022;28;20056;-73
2022/11/05 04:51:56;;;;;;;14.90;7.65;;;4.60;99.90;;;;;;5056915;28;20048;-73
2022/11/05 04:54:21;;;;;;;13.80;7.03;;;4.60;99.90;;;;;;5055863;28;20075;-73
2022/11/05 04:56:47;;;;;;;12.95;8.10;;;4.60;99.90;;;;;;5055196;28;20090;-73
2022/11/05 04:59:12;;;;;;;15.88;7.68;;;4.60;99.90;;;;;;5056509;28;20426;-74
2022/11/05 05:01:38;;;;;;;16.65;8.77;;;4.50;99.90;;;;;;5056434;28;20129;-72
2022/11/05 05:04:03;;;;;;;24.88;9.63;;;4.50;99.90;;;;;;5056157;28;20072;-75
2022/11/05 05:06:29;;;;;;;15.10;9.25;;;4.50;99.90;;;;;;5057078;28;20045;-73
2022/11/05 05:08:54;;;;;;;19.25;9.75;;;4.50;99.90;;;;;;5056080;28;20041;-73
2022/11/05 05:11:21;;;;;;;17.10;8.00;;;4.50;99.90;;;;;;5056233;28;20045;-73
2022/11/05 05:13:48;;;;;;;13.07;7.70;;;4.50;99.90;;;;;;5055840;28;20040;-74
2022/11/05 05:16:20;;;;;;;16.17;9.27;;;4.50;99.90;;;;;;5039006;28;20052;-73
2022/11/05 05:18:46;;;;;;;19.75;10.23;;;4.50;99.90;;;;;;5056295;28;20103;-74
2022/11/05 05:23:55;;;;;;;23.65;9.38;;;4.50;99.90;;;;;;5037879;28;20509;-73
2022/11/05 05:26:21;;;;;;;19.98;10.85;;;4.50;99.90;;;;;;5056528;28;20139;-73
2022/11/05 05:28:46;;;;;;;18.05;10.90;;;4.50;99.90;;;;;;5056088;28;20370;-73
2022/11/05 05:31:13;;;;;;;19.40;10.65;;;4.50;99.90;;;;;;5055886;28;20040;-73
2022/11/05 05:33:39;;;;;;;24.42;11.57;;;4.50;99.90;;;;;;5055583;28;20059;-74
2022/11/05 05:36:05;;;;;;;18.63;12.00;;;4.50;99.90;;;;;;5004216;28;20056;-72
2022/11/05 05:38:31;;;;;;;26.35;12.23;;;4.50;99.90;;;;;;5055882;28;20048;-73
2022/11/05 05:40:58;;;;;;;19.20;11.57;;;4.70;99.90;;;;;;5055641;28;20102;-73
2022/11/05 05:43:24;;;;;;;22.55;12.40;;;4.60;99.90;;;;;;5055392;28;20442;-74
2022/11/05 05:45:50;;;;;;;21.05;12.38;;;4.60;99.90;;;;;;5055560;28;20044;-73
2022/11/05 05:48:15;;;;;;;24.17;13.02;;;4.60;99.90;;;;;;5055684;28;20106;-74
2022/11/05 05:50:41;;;;;;;14.88;11.40;;;4.60;99.90;;;;;;5055516;28;20044;-74
2022/11/05 05:53:07;;;;;;;22.55;10.52;;;4.60;99.90;;;;;;5037830;28;20076;-73
2022/11/05 05:55:33;;;;;;;17.40;11.50;;;4.60;99.90;;;;;;5054884;28;20369;-73
2022/11/05 05:57:58;;;;;;;30.55;15.27;;;4.60;99.90;;;;;;5037494;28;20049;-73
2022/11/05 06:00:24;;;;;;;22.67;13.23;;;4.60;99.90;;;;;;5037283;28;20056;-73
2022/11/05 06:02:49;;;;;;;24.77;14.70;;;4.60;99.90;;;;;;5055414;28;20049;-73
2022/11/05 06:05:15;;;;;;;28.17;16.08;;;4.60;99.90;;;;;;5037810;28;20040;-73
2022/11/05 06:07:41;;;;;;;27.58;15.60;;;4.70;99.90;;;;;;5020575;28;20393;-73
2022/11/05 06:10:07;;;;;;;27.25;15.32;;;4.70;99.90;;;;;;5054915;28;20053;-73
2022/11/05 06:12:35;;;;;;;23.80;13.07;;;4.70;99.90;;;;;;5039176;28;20045;-73
2022/11/05 06:15:04;;;;;;;24.60;13.50;;;4.80;99.90;;;;;;5057922;28;20037;-73
2022/11/05 06:17:29;;;;;;;20.77;12.73;;;4.70;99.90;;;;;;5037196;28;20041;-73
2022/11/05 06:19:55;;;;;;;27.00;13.85;;;4.70;99.90;;;;;;5037492;28;20126;-73
2022/11/05 06:22:20;;;;;;;26.83;15.52;;;4.70;99.90;;;;;;5020287;28;20088;-73
2022/11/05 06:24:46;;;;;;;26.58;16.20;;;4.70;99.90;;;;;;5032254;28;20052;-74
2022/11/05 06:27:12;;;;;;;28.55;15.60;;;4.80;99.90;;;;;;5041530;28;20103;-73
2022/11/05 06:29:37;;;;;;;26.75;16.70;;;4.80;99.90;;;;;;5019766;28;20060;-73
2022/11/05 06:32:03;;;;;;;30.48;18.10;;;4.90;99.90;;;;;;5055117;28;20124;-73
2022/11/05 06:34:29;;;;;;;29.17;16.77;;;5.00;99.90;;;;;;5054339;28;20048;-72
2022/11/05 06:36:54;;;;;;;27.55;17.15;;;5.00;99.90;;;;;;5037290;28;20049;-74
2022/11/05 06:39:20;;;;;;;30.98;18.95;;;5.10;99.90;;;;;;5054485;28;20047;-73
2022/11/05 06:41:45;;;;;;;23.05;15.25;;;5.10;99.90;;;;;;5019805;28;20175;-73
2022/11/05 06:44:11;;;;;;;26.50;16.10;;;5.00;99.90;;;;;;5036984;28;20045;-73
2022/11/05 06:46:36;;;;;;;24.40;14.63;;;5.00;99.90;;;;;;5054789;28;20163;-73
2022/11/05 06:49:02;;;;;;;31.00;17.60;;;5.00;99.90;;;;;;5054472;28;20132;-75
2022/11/05 06:51:29;;;;;;;28.85;18.17;;;5.00;99.90;;;;;;5050825;28;20038;-73
2022/11/05 06:53:54;;;;;;;23.88;15.32;;;4.90;99.90;;;;;;5036112;28;20370;-74
2022/11/05 06:56:20;;;;;;;21.92;14.07;;;4.90;99.90;;;;;;5037181;28;20049;-73
2022/11/05 06:58:45;;;;;;;24.27;16.33;;;4.90;99.90;;;;;;5054564;28;20322;-73
2022/11/05 07:01:11;;;;;;;21.02;14.48;;;4.90;99.90;;;;;;5054400;28;20060;-72
2022/11/05 07:03:37;;;;;;;26.17;15.05;;;4.90;99.90;;;;;;5054639;28;20076;-73
2022/11/05 07:06:05;;;;;;;20.65;13.60;;;4.80;99.90;;;;;;5053981;28;20037;-73
2022/11/05 07:08:32;;;;;;;21.50;14.90;;;4.80;99.90;;;;;;5054459;28;20045;-73
2022/11/05 07:10:58;;;;;;;25.08;15.18;;;4.80;99.90;;;;;;5054669;28;20048;-73
2022/11/05 07:13:24;;;;;;;30.90;16.60;;;5.00;99.90;;;;;;5054537;28;20086;-71
2022/11/05 07:15:49;;;;;;;20.85;14.98;;;4.90;99.90;;;;;;5053828;28;20581;-70
2022/11/05 07:18:15;;;;;;;30.17;16.83;;;4.90;99.90;;;;;;5054279;28;20359;-73
2022/11/05 07:20:40;;;;;;;27.30;16.63;;;4.90;99.90;;;;;;5058626;28;20187;-70
2022/11/05 07:23:12;;;;;;;21.90;13.85;;;4.90;99.90;;;;;;5058227;28;20048;-73
2022/11/05 07:25:38;;;;;;;22.27;14.90;;;4.90;99.90;;;;;;5057832;28;20041;-72
2022/11/05 07:28:04;;;;;;;23.90;14.85;;;4.90;99.90;;;;;;5058432;28;20041;-72
2022/11/05 07:30:31;;;;;;;23.92;15.65;;;4.90;99.90;;;;;;5040604;28;20127;-74
2022/11/05 07:32:57;;;;;;;19.45;13.52;;;4.90;99.90;;;;;;5040776;28;20048;-73
2022/11/05 07:35:23;;;;;;;24.55;16.90;;;4.90;99.90;;;;;;5057571;28;20357;-73
2022/11/05 07:37:50;;;;;;;27.75;16.30;;;5.00;99.90;;;;;;5052931;28;20045;-72
2022/11/05 07:40:18;;;;;;;21.55;13.55;;;5.00;99.90;;;;;;5039898;28;20049;-74
2022/11/05 07:42:52;;;;;;;22.35;15.18;;;5.10;99.90;;;;;;5057863;28;20128;-72
2022/11/05 07:45:18;;;;;;;21.92;14.35;;;5.10;99.90;;;;;;5039477;28;20045;-73
2022/11/05 07:47:49;;;;;;;21.30;12.57;;;5.10;99.90;;;;;;5057583;28;20318;-72
2022/11/05 07:50:19;;;;;;;21.77;14.35;;;5.20;99.90;;;;;;5057450;28;20449;-73
2022/11/05 07:52:46;;;;;;;22.40;14.95;;;5.20;99.90;;;;;;5039882;28;20095;-73
2022/11/05 07:55:12;;;;;;;21.10;13.85;;;5.30;99.90;;;;;;5056318;28;20044;-74
2022/11/05 07:57:43;;;;;;;20.83;14.73;;;5.90;99.90;;;;;;5057365;28;20128;-72
2022/11/05 08:00:12;;;;;;;16.30;13.32;;;5.40;99.90;;;;;;5038332;28;20422;-73
2022/11/05 08:02:38;;;;;;;22.60;14.55;;;5.40;99.90;;;;;;5037172;28;20495;-73
2022/11/05 08:05:03;;;;;;;24.77;14.88;;;5.40;99.90;;;;;;5045803;28;20048;-74
2022/11/05 08:07:29;;;;;;;18.83;13.02;;;5.50;99.90;;;;;;5057083;28;20129;-74
2022/11/05 08:09:54;;;;;;;21.35;13.32;;;5.50;99.90;;;;;;5057959;28;20088;-72
2022/11/05 08:12:20;;;;;;;19.38;12.68;;;5.50;99.90;;;;;;5057244;28;20056;-74
2022/11/05 08:14:45;;;;;;;22.23;13.23;;;5.60;99.90;;;;;;5057011;28;20052;-74
2022/11/05 08:17:11;;;;;;;20.13;13.25;;;5.70;99.90;;;;;;5057104;28;20052;-74
2022/11/05 08:19:37;;;;;;;19.88;13.10;;;5.70;99.90;;;;;;5057100;28;20483;-73
2022/11/05 08:22:02;;;;;;;22.88;13.48;;;5.70;99.90;;;;;;5056682;28;20102;-73
2022/11/05 08:24:28;;;;;;;24.40;12.77;;;5.80;99.90;;;;;;5056921;28;20053;-73
2022/11/05 08:26:53;;;;;;;20.42;13.02;;;5.90;99.90;;;;;;5057531;28;20351;-74
2022/11/05 08:29:19;;;;;;;16.38;12.27;;;5.90;99.90;;;;;;5056903;28;20041;-72
2022/11/05 08:31:44;;;;;;;17.33;12.40;;;6.10;99.90;;;;;;5057262;28;20098;-73
2022/11/05 08:34:10;;;;;;;20.00;13.05;;;6.10;99.90;;;;;;5056776;28;20051;-74
2022/11/05 08:36:36;;;;;;;22.38;12.65;;;6.30;99.90;;;;;;5056726;28;20083;-73
2022/11/05 08:39:01;;;;;;;15.07;11.07;;;6.40;99.90;;;;;;5056998;28;20096;-73
2022/11/05 08:41:27;;;;;;;19.88;12.75;;;6.50;99.90;;;;;;5056740;28;20048;-74
2022/11/05 08:43:56;;;;;;;22.60;13.02;;;6.60;99.90;;;;;;5056588;28;20090;-74
2022/11/05 08:46:21;;;;;;;11.88;8.77;;;6.60;99.90;;;;;;5056234;28;20037;-73
2022/11/05 08:48:47;;;;;;;18.08;10.57;;;6.70;99.90;;;;;;5056719;28;20037;-74
2022/11/05 08:51:12;;;;;;;16.45;9.45;;;6.70;99.90;;;;;;5056403;28;20167;-73
2022/11/05 08:53:38;;;;;;;14.55;9.32;;;6.80;99.90;;;;;;5056774;28;20060;-73
2022/11/05 08:56:04;;;;;;;13.90;9.25;;;6.80;99.90;;;;;;5056155;28;20037;-73
2022/11/05 08:58:29;;;;;;;15.88;9.23;;;6.90;99.90;;;;;;5056217;28;20044;-74
2022/11/05 09:00:55;;;;;;;15.77;9.75;;;6.90;99.90;;;;;;5056313;28;20072;-74
2022/11/05 09:03:21;;;;;;;14.60;9.73;;;7.00;99.90;;;;;;5056229;28;20477;-73
2022/11/05 09:05:46;;;;;;;17.05;10.32;;;7.00;99.90;;;;;;5056028;28;20041;-73
2022/11/05 09:08:15;;;;;;;12.55;9.13;;;7.10;99.90;;;;;;5056339;28;20051;-74
2022/11/05 09:10:41;;;;;;;15.05;9.23;;;7.10;99.90;;;;;;5056137;28;20036;-72
2022/11/05 09:13:07;;;;;;;12.73;8.75;;;7.20;99.90;;;;;;5056086;28;20041;-73
2022/11/05 09:15:34;;;;;;;14.95;9.23;;;7.20;99.90;;;;;;5038511;28;20457;-72
2022/11/05 09:18:01;;;;;;;14.65;9.65;;;7.20;99.90;;;;;;5038247;28;20072;-73
2022/11/05 09:20:27;;;;;;;12.90;9.15;;;7.30;99.90;;;;;;5055885;28;20049;-73
2022/11/05 09:22:52;;;;;;;16.42;10.05;;;7.30;99.90;;;;;;5056104;28;20041;-74
2022/11/05 09:25:18;;;;;;;15.07;9.18;;;7.40;99.90;;;;;;5055922;28;20106;-73
2022/11/05 09:27:44;;;;;;;13.63;8.70;;;7.40;99.90;;;;;;5056115;28;20037;-74
2022/11/05 09:30:11;;;;;;;15.13;8.82;;;7.50;99.90;;;;;;5038981;28;20088;-74
2022/11/05 09:32:36;;;;;;;11.88;8.05;;;7.50;99.90;;;;;;5055696;28;20346;-73
2022/11/05 09:35:02;;;;;;;17.75;7.38;;;7.60;99.90;;;;;;5038010;28;20052;-72
2022/11/05 09:37:28;;;;;;;10.75;7.53;;;7.70;99.90;;;;;;5056456;28;20119;-72
2022/11/05 09:39:55;;;;;;;13.95;7.90;;;7.80;99.90;;;;;;5055834;28;20146;-73
2022/11/05 09:42:25;;;;;;;14.27;7.57;;;7.80;99.90;;;;;;5055306;28;20069;-74
2022/11/05 09:44:58;;;;;;;12.05;7.57;;;7.80;99.90;;;;;;5054904;28;20041;-75
2022/11/05 09:47:42;;;;;;;11.55;7.30;;;7.90;99.90;;;;;;5054926;28;20427;-72
2022/11/05 09:50:14;;;;;;;8.90;6.55;;;8.00;99.90;;;;;;5038198;28;20071;-73
2022/11/05 09:52:40;;;;;;;11.95;6.97;;;8.10;99.90;;;;;;5055403;28;20158;-72
2022/11/05 09:55:19;;;;;;;13.60;6.78;;;8.10;99.90;;;;;;5054898;28;20069;-75
2022/11/05 09:57:51;;;;;;;14.38;6.75;;;8.20;99.90;;;;;;5055483;28;20041;-73
2022/11/05 10:00:17;;;;;;;14.05;6.65;;;8.20;99.90;;;;;;5038060;28;20089;-74
2022/11/05 10:02:59;;;;;;;14.13;6.45;;;8.30;99.90;;;;;;5055400;28;20098;-73
2022/11/05 10:05:25;;;;;;;12.82;5.80;;;8.40;99.90;;;;;;5054829;28;20100;-74
2022/11/05 10:08:00;;;;;;;15.27;6.07;;;8.40;99.90;;;;;;5055242;28;20118;-73
2022/11/05 10:10:33;;;;;;;13.73;6.07;;;8.40;99.90;;;;;;5054908;28;20116;-74
2022/11/05 10:13:04;;;;;;;12.60;6.78;;;8.50;99.90;;;;;;5055042;28;20060;-73
2022/11/05 10:15:36;;;;;;;8.90;5.43;;;8.50;99.90;;;;;;5055265;28;20054;-74
2022/11/05 10:18:36;;;;;;;10.02;5.40;;;8.60;99.90;;;;;;5055099;28;20136;-74
2022/11/05 10:21:02;;;;;;;10.13;5.25;;;8.70;99.90;;;;;;4983718;28;20393;-72
2022/11/05 10:23:28;;;;;;;13.88;5.20;;;8.80;99.90;;;;;;5054610;28;20064;-72
2022/11/05 10:26:00;;;;;;;9.00;4.95;;;8.80;99.90;;;;;;5054216;28;20053;-72
2022/11/05 10:28:29;;;;;;;10.63;4.70;;;8.90;99.90;;;;;;5054281;28;20051;-74
2022/11/05 10:31:07;;;;;;;11.18;5.20;;;9.00;99.90;;;;;;5052451;28;20045;-74
2022/11/05 10:33:39;;;;;;;9.38;5.38;;;9.00;99.90;;;;;;5038329;28;20050;-72
2022/11/05 10:36:08;;;;;;;9.50;4.13;;;9.10;99.90;;;;;;5042231;28;20429;-74
2022/11/05 10:38:34;;;;;;;12.48;5.05;;;9.10;99.90;;;;;;5017209;28;20038;-74
2022/11/05 10:41:27;;;;;;;9.27;4.40;;;9.20;99.90;;;;;;5034664;28;20355;-73
2022/11/05 10:44:14;;;;;;;14.80;4.70;;;9.30;99.90;;;;;;5036366;28;20041;-73
2022/11/05 10:46:47;;;;;;;7.93;4.03;;;9.30;99.90;;;;;;5049260;28;20041;-72
2022/11/05 10:49:31;;;;;;;9.57;4.30;;;9.40;99.90;;;;;;5054584;28;20041;-72
2022/11/05 10:52:02;;;;;;;9.43;3.78;;;9.50;99.90;;;;;;5054869;28;20122;-72
2022/11/05 10:54:33;;;;;;;10.70;3.50;;;9.50;99.90;;;;;;5058910;28;20467;-73
2022/11/05 10:56:59;;;;;;;10.93;3.58;;;9.70;99.90;;;;;;5058306;28;20349;-72
2022/11/05 10:59:27;;;;;;;8.98;3.67;;;9.70;99.90;;;;;;5058680;28;20055;-74
2022/11/05 11:02:11;;;;;;;7.43;3.22;;;9.90;99.90;;;;;;5040974;28;20057;-71
2022/11/05 11:04:37;;;;;;;7.57;3.38;;;9.80;99.90;;;;;;5058545;28;20044;-73
2022/11/05 11:07:03;;;;;;;9.40;3.42;;;9.80;99.90;;;;;;5035265;28;20059;-74
2022/11/05 11:09:35;;;;;;;8.02;3.60;;;10.00;99.90;;;;;;5041761;28;20045;-73
2022/11/05 11:12:15;;;;;;;11.10;3.20;;;10.00;99.90;;;;;;5050117;28;20057;-72
2022/11/05 11:14:41;;;;;;;7.55;3.03;;;10.10;99.90;;;;;;5051704;28;20048;-72
2022/11/05 11:17:26;;;;;;;7.90;3.33;;;10.10;99.90;;;;;;5023376;28;20037;-70
2022/11/05 11:20:16;;;;;;;8.65;2.70;;;10.20;99.90;;;;;;5039028;28;20369;-72
2022/11/05 11:22:59;;;;;;;9.18;3.40;;;10.20;99.90;;;;;;5038055;28;20458;-72
2022/11/05 11:25:27;;;;;;;9.13;2.97;;;10.30;99.90;;;;;;5043150;28;20045;-73
2022/11/05 11:27:53;;;;;;;10.48;3.00;;;10.30;99.90;;;;;;5058038;28;20045;-72
2022/11/05 11:30:19;;;;;;;9.25;3.20;;;10.40;99.90;;;;;;5058433;28;20084;-73
2022/11/05 11:32:47;;;;;;;6.38;2.65;;;10.50;99.90;;;;;;5057890;28;20382;-73
2022/11/05 11:35:22;;;;;;;6.30;2.70;;;10.50;99.90;;;;;;5057788;28;20053;-73
2022/11/05 11:37:50;;;;;;;7.20;2.53;;;10.60;99.90;;;;;;5040595;28;20469;-73
2022/11/05 11:40:20;;;;;;;5.80;2.22;;;10.70;99.90;;;;;;5058376;28;20041;-74
2022/11/05 11:42:49;;;;;;;6.72;2.50;;;10.80;99.90;;;;;;5058078;28;20123;-74
2022/11/05 11:45:22;;;;;;;7.45;2.63;;;10.90;99.90;;;;;;5057860;28;20041;-73
2022/11/05 11:47:49;;;;;;;8.43;2.60;;;11.00;99.90;;;;;;5058097;28;20128;-73
2022/11/05 11:50:38;;;;;;;4.50;2.13;;;11.20;99.90;;;;;;5057636;28;20518;-73
2022/11/05 11:53:18;;;;;;;5.90;2.38;;;11.00;99.90;;;;;;5024134;28;20053;-73
2022/11/05 11:55:58;;;;;;;7.30;2.20;;;11.00;99.90;;;;;;5039772;28;20049;-71
2022/11/05 11:58:45;;;;;;;7.20;2.45;;;11.10;99.90;;;;;;5057706;28;20114;-74
2022/11/05 12:01:16;;;;;;;7.65;2.35;;;11.10;99.90;;;;;;5039888;28;20072;-73
2022/11/05 12:04:07;;;;;;;4.40;2.22;;;11.20;99.90;;;;;;5057676;28;20067;-73
2022/11/05 12:06:59;;;;;;;6.78;2.28;;;11.10;99.90;;;;;;5037632;28;20053;-73
2022/11/05 12:09:46;;;;;;;3.85;2.03;;;11.10;99.90;;;;;;5037637;28;20045;-72
2022/11/05 12:12:14;;;;;;;8.05;2.40;;;11.00;99.90;;;;;;5037304;28;20041;-74
2022/11/05 12:14:39;;;;;;;4.88;1.85;;;11.10;99.90;;;;;;5043722;28;20495;-72
2022/11/05 12:17:17;;;;;;;6.45;1.73;;;11.10;99.90;;;;;;5057186;28;20120;-73
2022/11/05 12:19:57;;;;;;;4.45;1.40;;;11.10;99.90;;;;;;5057833;28;20044;-72
2022/11/05 12:23:07;;;;;;;4.47;1.40;;;11.20;99.90;;;;;;5055041;28;20056;-72
2022/11/05 12:25:44;;;;;;;6.72;1.60;;;11.20;99.90;;;;;;5037687;28;20080;-73
2022/11/05 12:28:31;;;;;;;6.78;1.77;;;11.20;99.90;;;;;;5030596;28;20041;-73
2022/11/05 12:30:59;;;;;;;6.15;1.50;;;11.30;99.90;;;;;;5024600;28;20053;-74
2022/11/05 12:33:25;;;;;;;8.40;1.88;;;11.30;99.90;;;;;;5056761;28;20106;-73
2022/11/05 12:35:54;;;;;;;4.57;1.88;;;11.30;99.90;;;;;;5056075;28;20056;-72
2022/11/05 12:38:47;;;;;;;6.05;1.98;;;11.30;99.90;;;;;;5038466;28;20045;-74
2022/11/05 12:41:33;;;;;;;6.18;1.73;;;11.30;99.90;;;;;;5047309;28;20057;-74
2022/11/05 12:44:26;;;;;;;6.35;2.10;;;11.40;99.90;;;;;;5019260;28;20056;-73
2022/11/05 12:47:13;;;;;;;5.63;1.73;;;11.40;99.90;;;;;;5022976;28;20057;-74
2022/11/05 12:50:10;;;;;;;5.05;1.90;;;11.40;99.90;;;;;;5036549;28;20049;-73
2022/11/05 12:52:52;;;;;;;6.13;2.00;;;11.40;99.90;;;;;;5047553;28;20046;-69
2022/11/05 12:55:26;;;;;;;5.72;1.92;;;11.40;99.90;;;;;;5019341;28;20095;-70
2022/11/05 12:57:56;;;;;;;4.35;1.70;;;11.40;99.90;;;;;;5043107;28;20167;-74
2022/11/05 13:00:24;;;;;;;9.57;2.30;;;11.40;99.90;;;;;;5040932;28;20053;-73
2022/11/05 13:03:15;;;;;;;4.68;2.03;;;11.30;99.90;;;;;;5040079;28;20520;-71
2022/11/05 13:05:48;;;;;;;7.53;1.80;;;11.30;99.90;;;;;;5038723;28;20051;-75
2022/11/05 13:08:28;;;;;;;5.63;2.00;;;11.30;99.90;;;;;;5056155;28;20037;-72
2022/11/05 13:10:59;;;;;;;3.90;2.20;;;11.10;99.90;;;;;;5055332;28;20388;-73
2022/11/05 13:13:30;;;;;;;5.18;1.77;;;11.20;99.90;;;;;;5056089;28;20041;-72
2022/11/05 13:16:04;;;;;;;7.20;2.00;;;11.10;99.90;;;;;;5055312;28;20052;-74
2022/11/05 13:18:43;;;;;;;9.63;2.47;;;11.30;99.90;;;;;;5054961;28;20385;-73
2022/11/05 13:21:10;;;;;;;5.88;1.90;;;11.20;99.90;;;;;;5036810;28;20472;-74
2022/11/05 13:23:48;;;;;;;6.43;2.60;;;11.30;99.90;;;;;;5033162;28;20049;-75
2022/11/05 13:26:36;;;;;;;6.72;2.20;;;11.30;99.90;;;;;;5045708;28;20044;-72
2022/11/05 13:29:11;;;;;;;6.43;2.17;;;11.30;99.90;;;;;;5034968;28;20060;-73
2022/11/05 13:31:42;;;;;;;6.85;2.50;;;11.30;99.90;;;;;;5044387;28;20038;-73
2022/11/05 13:34:11;;;;;;;6.93;2.72;;;11.30;99.90;;;;;;5001213;28;20068;-74
2022/11/05 13:40:01;;;;;;;9.13;3.33;;;11.40;99.90;;;;;;5118638;27;20386;-74
2022/11/05 13:42:48;;;;;;;8.82;3.00;;;11.40;99.90;;;;;;5068254;28;20052;-72
2022/11/05 13:45:47;;;;;;;9.98;4.10;;;11.30;99.90;;;;;;5090182;28;20051;-73
2022/11/05 13:48:29;;;;;;;8.52;3.63;;;11.60;99.90;;;;;;5070705;28;20053;-73
2022/11/05 13:51:19;;;;;;;9.57;3.78;;;11.30;99.90;;;;;;5090793;28;20066;-72
2022/11/05 13:53:53;;;;;;;9.07;3.80;;;11.30;99.90;;;;;;5092946;28;20054;-71
2022/11/05 13:56:49;;;;;;;12.23;4.07;;;11.40;99.90;;;;;;5100968;28;20499;-73
2022/11/05 13:59:31;;;;;;;10.32;3.95;;;11.30;99.90;;;;;;5068806;28;20049;-74
2022/11/05 14:01:59;;;;;;;9.63;4.22;;;11.30;99.90;;;;;;5087126;28;20486;-74